createdAt,value
2022-09-28T00:01:00.650Z,0.93
2022-09-28T00:03:28.968Z,0.83
2022-09-28T00:06:02.430Z,0.90
2022-09-28T00:08:31.652Z,0.93
2022-09-28T00:10:59.720Z,0.80
2022-09-28T00:13:28.182Z,1.00
2022-09-28T00:16:03.970Z,1.10
2022-09-28T00:18:32.202Z,0.80
2022-09-28T00:21:04.665Z,0.90
2022-09-28T00:23:34.540Z,1.00
2022-09-28T00:26:06.418Z,1.20
2022-09-28T00:28:34.292Z,0.97
2022-09-28T00:31:02.243Z,0.97
2022-09-28T00:33:31.095Z,1.10
2022-09-28T00:35:59.163Z,0.80
2022-09-28T00:38:28.337Z,0.80
2022-09-28T00:40:57.690Z,1.40
2022-09-28T00:43:26.367Z,1.10
2022-09-28T00:46:00.242Z,0.73
2022-09-28T00:48:32.163Z,0.77
2022-09-28T00:51:02.962Z,0.80
2022-09-28T00:53:34.735Z,0.80
2022-09-28T00:56:09.187Z,0.93
2022-09-28T00:58:44.784Z,0.90
2022-09-28T01:01:13.342Z,0.80
2022-09-28T01:03:45.253Z,1.10
2022-09-28T01:06:19.064Z,0.60
2022-09-28T01:08:50.547Z,0.80
2022-09-28T01:11:20.976Z,0.90
2022-09-28T01:13:52.275Z,1.00
2022-09-28T01:16:33.727Z,0.70
2022-09-28T01:19:34.389Z,1.00
2022-09-28T01:22:21.012Z,0.90
2022-09-28T01:24:55.398Z,0.90
2022-09-28T01:27:29.216Z,0.87
2022-09-28T01:30:05.341Z,1.10
2022-09-28T01:32:48.918Z,1.00
2022-09-28T01:35:20.998Z,1.00
2022-09-28T01:37:54.824Z,0.87
2022-09-28T01:40:25.783Z,0.87
2022-09-28T01:42:59.617Z,0.93
2022-09-28T01:45:31.262Z,0.90
2022-09-28T01:48:03.723Z,0.80
2022-09-28T01:50:37.829Z,1.00
2022-09-28T01:53:11.787Z,0.80
2022-09-28T01:55:44.916Z,0.70
2022-09-28T01:58:19.203Z,0.83
2022-09-28T02:00:52.012Z,0.80
2022-09-28T02:03:25.540Z,0.83
2022-09-28T02:06:06.883Z,1.30
2022-09-28T02:08:37.400Z,1.20
2022-09-28T02:11:10.729Z,1.00
2022-09-28T02:13:43.815Z,0.80
2022-09-28T02:16:22.177Z,0.80
2022-09-28T02:18:51.955Z,1.13
2022-09-28T02:21:26.937Z,1.00
2022-09-28T02:24:00.868Z,0.70
2022-09-28T02:26:33.005Z,0.90
2022-09-28T02:29:02.302Z,1.10
2022-09-28T02:31:30.173Z,0.87
2022-09-28T02:33:58.808Z,0.87
2022-09-28T02:36:27.376Z,1.10
2022-09-28T02:38:55.649Z,1.03
2022-09-28T02:41:35.365Z,0.80
2022-09-28T02:44:16.708Z,1.00
2022-09-28T02:46:52.598Z,0.97
2022-09-28T02:49:35.934Z,0.80
2022-09-28T02:52:23.298Z,1.00
2022-09-28T02:55:20.865Z,1.17
2022-09-28T02:58:04.563Z,1.00
2022-09-28T03:00:38.745Z,1.13
2022-09-28T03:03:18.906Z,1.00
2022-09-28T03:05:52.620Z,1.10
2022-09-28T03:08:25.037Z,0.80
2022-09-28T03:10:59.846Z,0.80
2022-09-28T03:13:29.002Z,1.00
2022-09-28T03:16:10.288Z,1.17
2022-09-28T03:18:38.502Z,1.20
2022-09-28T03:21:06.547Z,0.87
2022-09-28T03:23:34.447Z,0.70
2022-09-28T03:26:03.093Z,1.03
2022-09-28T03:28:31.581Z,1.00
2022-09-28T03:30:59.329Z,0.80
2022-09-28T03:33:28.628Z,1.20
2022-09-28T03:35:56.429Z,0.90
2022-09-28T03:38:24.775Z,1.07
2022-09-28T03:40:56.853Z,0.97
2022-09-28T03:43:25.786Z,0.97
2022-09-28T03:45:56.843Z,1.10
2022-09-28T03:48:31.234Z,0.90
2022-09-28T03:51:03.076Z,0.97
2022-09-28T03:53:30.889Z,1.07
2022-09-28T03:56:04.595Z,0.90
2022-09-28T03:58:33.511Z,1.10
2022-09-28T04:01:06.234Z,0.80
2022-09-28T04:03:34.580Z,0.90
2022-09-28T04:06:03.787Z,1.00
2022-09-28T04:08:31.839Z,0.90
2022-09-28T04:11:00.672Z,0.70
2022-09-28T04:13:30.469Z,0.77
2022-09-28T04:16:01.516Z,0.80
2022-09-28T04:18:35.184Z,0.83
2022-09-28T04:21:09.254Z,0.97
2022-09-28T04:23:50.449Z,1.03
2022-09-28T04:26:20.481Z,0.70
2022-09-28T04:29:07.190Z,0.80
2022-09-28T04:31:40.040Z,0.73
2022-09-28T04:34:08.032Z,0.90
2022-09-28T04:36:37.573Z,0.80
2022-09-28T04:39:05.416Z,0.80
2022-09-28T04:41:34.090Z,0.80
2022-09-28T04:44:02.605Z,0.90
2022-09-28T04:46:30.415Z,0.90
2022-09-28T04:49:26.997Z,0.80
2022-09-28T04:51:59.024Z,0.80
2022-09-28T04:54:26.817Z,0.80
2022-09-28T04:56:55.382Z,0.87
2022-09-28T04:59:23.304Z,0.70
2022-09-28T05:01:51.127Z,1.10
2022-09-28T05:04:37.399Z,0.80
2022-09-28T05:07:27.859Z,1.40
2022-09-28T05:09:56.186Z,0.93
2022-09-28T05:12:24.263Z,0.97
2022-09-28T05:14:52.132Z,1.13
2022-09-28T05:17:20.093Z,1.00
2022-09-28T05:19:59.106Z,1.00
2022-09-28T05:22:28.575Z,0.80
2022-09-28T05:24:58.257Z,0.90
2022-09-28T05:27:26.649Z,0.97
2022-09-28T05:30:18.915Z,1.20
2022-09-28T05:33:15.479Z,1.00
2022-09-28T05:35:51.049Z,1.13
2022-09-28T05:38:22.555Z,1.20
2022-09-28T05:40:50.550Z,1.03
2022-09-28T05:43:18.873Z,1.10
2022-09-28T05:45:47.361Z,1.90
2022-09-28T05:48:18.404Z,1.23
2022-09-28T05:50:51.474Z,1.60
2022-09-28T05:53:19.431Z,1.23
2022-09-28T05:55:49.289Z,2.20
2022-09-28T05:58:18.186Z,3.87
2022-09-28T06:00:46.126Z,1.63
2022-09-28T06:03:19.604Z,1.30
2022-09-28T06:05:47.646Z,1.10
2022-09-28T06:08:15.660Z,1.60
2022-09-28T06:10:48.457Z,1.10
2022-09-28T06:13:16.635Z,1.80
2022-09-28T06:15:47.622Z,1.33
2022-09-28T06:18:15.996Z,1.37
2022-09-28T06:21:05.860Z,1.30
2022-09-28T06:23:40.598Z,1.50
2022-09-28T06:26:10.668Z,2.50
2022-09-28T06:28:38.527Z,1.47
2022-09-28T06:31:07.477Z,2.03
2022-09-28T06:33:43.117Z,1.60
2022-09-28T06:36:11.061Z,1.67
2022-09-28T06:38:39.178Z,2.60
2022-09-28T06:41:07.333Z,2.00
2022-09-28T06:43:36.706Z,1.43
2022-09-28T06:46:14.191Z,1.70
2022-09-28T06:48:51.553Z,2.93
2022-09-28T06:51:39.292Z,1.80
2022-09-28T06:54:20.024Z,1.30
2022-09-28T06:56:58.665Z,1.37
2022-09-28T06:59:27.915Z,1.50
2022-09-28T07:01:55.804Z,1.40
2022-09-28T07:04:42.966Z,1.20
2022-09-28T07:07:29.513Z,1.17
2022-09-28T07:10:17.906Z,0.87
2022-09-28T07:13:07.371Z,1.20
2022-09-28T07:15:47.625Z,1.50
2022-09-28T07:18:17.782Z,1.40
2022-09-28T07:20:53.746Z,1.40
2022-09-28T07:23:22.416Z,1.00
2022-09-28T07:26:11.514Z,1.17
2022-09-28T07:28:55.902Z,1.30
2022-09-28T07:31:51.209Z,1.10
2022-09-28T07:34:41.221Z,1.30
2022-09-28T07:37:26.566Z,1.17
2022-09-28T07:40:23.950Z,1.23
2022-09-28T07:42:52.135Z,1.43
2022-09-28T07:45:24.683Z,1.23
2022-09-28T07:47:56.266Z,1.53
2022-09-28T07:50:42.742Z,2.47
2022-09-28T07:53:17.053Z,2.40
2022-09-28T07:56:05.725Z,0.80
2022-09-28T07:59:02.858Z,1.17
2022-09-28T08:01:49.919Z,0.77
2022-09-28T08:04:20.510Z,0.87
2022-09-28T08:06:48.381Z,0.83
2022-09-28T08:09:16.532Z,1.07
2022-09-28T08:12:04.099Z,1.10
2022-09-28T08:14:41.670Z,0.77
2022-09-28T08:17:12.448Z,0.90
2022-09-28T08:20:05.844Z,0.90
2022-09-28T08:22:33.762Z,1.20
2022-09-28T08:25:02.201Z,0.80
2022-09-28T08:27:30.598Z,0.90
2022-09-28T08:29:58.387Z,0.70
2022-09-28T08:32:47.764Z,1.03
2022-09-28T08:35:35.355Z,1.53
2022-09-28T08:38:15.269Z,1.40
2022-09-28T08:41:17.578Z,2.37
2022-09-28T08:44:23.717Z,1.60
2022-09-28T08:47:31.723Z,1.57
2022-09-28T08:50:21.560Z,1.20
2022-09-28T08:53:18.448Z,1.37
2022-09-28T08:56:16.058Z,1.23
2022-09-28T08:58:48.175Z,1.00
2022-09-28T09:01:18.947Z,1.10
2022-09-28T09:03:55.813Z,0.80
2022-09-28T09:06:49.244Z,0.73
2022-09-28T09:09:41.924Z,0.63
2022-09-28T09:12:19.264Z,0.80
2022-09-28T09:15:20.512Z,1.00
2022-09-28T09:17:59.514Z,0.90
2022-09-28T09:20:43.971Z,1.27
2022-09-28T09:23:25.675Z,0.97
2022-09-28T09:26:00.221Z,1.20
2022-09-28T09:28:42.026Z,1.00
2022-09-28T09:31:27.142Z,1.07
2022-09-28T09:34:13.675Z,1.17
2022-09-28T09:37:07.449Z,1.20
2022-09-28T09:40:05.084Z,1.13
2022-09-28T09:43:10.460Z,1.10
2022-09-28T09:46:03.094Z,1.20
2022-09-28T09:48:39.381Z,1.50
2022-09-28T09:51:18.022Z,1.20
2022-09-28T09:53:52.264Z,1.30
2022-09-28T09:56:27.149Z,1.37
2022-09-28T09:59:12.162Z,1.83
2022-09-28T10:01:58.574Z,1.20
2022-09-28T10:04:46.692Z,1.50
2022-09-28T10:07:25.378Z,1.47
2022-09-28T10:09:58.266Z,1.63
2022-09-28T10:12:44.577Z,1.53
2022-09-28T10:15:20.112Z,2.00
2022-09-28T10:18:05.926Z,1.47
2022-09-28T10:21:06.456Z,1.50
2022-09-28T10:24:02.653Z,1.30
2022-09-28T10:26:36.545Z,1.30
2022-09-28T10:29:13.145Z,1.33
2022-09-28T10:31:44.116Z,3.43
2022-09-28T10:34:27.140Z,2.57
2022-09-28T10:37:00.668Z,5.00
2022-09-28T10:39:37.423Z,1.07
2022-09-28T10:42:09.035Z,1.30
2022-09-28T10:44:51.573Z,1.77
2022-09-28T10:47:45.624Z,1.90
2022-09-28T10:50:22.241Z,1.60
2022-09-28T10:52:52.747Z,1.90
2022-09-28T10:55:40.576Z,1.10
2022-09-28T10:58:29.776Z,1.00
2022-09-28T11:01:03.935Z,1.30
2022-09-28T11:03:34.021Z,1.43
2022-09-28T11:06:08.873Z,1.17
2022-09-28T11:08:42.889Z,1.20
2022-09-28T11:11:19.365Z,1.20
2022-09-28T11:13:53.452Z,1.50
2022-09-28T11:16:30.331Z,1.10
2022-09-28T11:19:06.133Z,1.20
2022-09-28T11:21:43.414Z,1.30
2022-09-28T11:24:21.024Z,1.40
2022-09-28T11:26:53.588Z,1.20
2022-09-28T11:29:33.545Z,1.93
2022-09-28T11:32:21.929Z,3.23
2022-09-28T11:35:19.610Z,1.30
2022-09-28T11:38:02.284Z,1.37
2022-09-28T11:41:18.846Z,1.50
2022-09-28T11:44:13.023Z,2.00
2022-09-28T11:46:49.943Z,1.60
2022-09-28T11:49:34.322Z,1.50
2022-09-28T11:52:09.232Z,1.20
2022-09-28T11:54:43.711Z,1.23
2022-09-28T11:57:17.845Z,1.10
2022-09-28T11:59:54.867Z,1.70
2022-09-28T12:02:27.571Z,1.33
2022-09-28T12:05:14.919Z,1.43
2022-09-28T12:07:52.090Z,1.30
2022-09-28T12:10:45.532Z,1.20
2022-09-28T12:13:18.901Z,1.37
2022-09-28T12:18:45.647Z,1.20
2022-09-28T12:21:28.931Z,1.60
2022-09-28T12:24:07.674Z,1.33
2022-09-28T12:26:43.140Z,1.60
2022-09-28T12:29:15.357Z,1.80
2022-09-28T12:31:56.934Z,1.73
2022-09-28T12:34:24.868Z,1.83
2022-09-28T12:37:10.041Z,3.37
2022-09-28T12:39:58.458Z,1.97
2022-09-28T12:42:44.056Z,1.83
2022-09-28T12:45:38.902Z,1.50
2022-09-28T12:49:03.029Z,1.33
2022-09-28T12:51:48.979Z,1.40
2022-09-28T12:54:34.795Z,1.70
2022-09-28T12:57:20.624Z,2.07
2022-09-28T13:00:02.387Z,1.70
2022-09-28T13:02:57.086Z,1.83
2022-09-28T13:05:44.265Z,1.80
2022-09-28T13:08:18.256Z,2.00
2022-09-28T13:10:56.195Z,1.80
2022-09-28T13:13:38.940Z,1.80
2022-09-28T13:16:17.475Z,1.70
2022-09-28T13:18:51.316Z,1.70
2022-09-28T13:21:28.426Z,1.80
2022-09-28T13:24:14.489Z,1.63
2022-09-28T13:26:49.011Z,2.00
2022-09-28T13:29:20.702Z,2.37
2022-09-28T13:31:51.833Z,1.87
2022-09-28T13:34:22.524Z,2.27
2022-09-28T13:37:20.887Z,1.90
2022-09-28T13:39:52.216Z,1.90
2022-09-28T13:42:41.627Z,1.90
2022-09-28T13:45:56.662Z,2.33
2022-09-28T13:48:38.350Z,2.10
2022-09-28T13:51:13.973Z,2.00
2022-09-28T13:54:21.836Z,4.30
2022-09-28T13:56:57.789Z,5.13
2022-09-28T13:59:28.053Z,2.00
2022-09-28T14:02:06.912Z,2.47
2022-09-28T14:04:57.918Z,1.90
2022-09-28T14:10:19.942Z,2.00
2022-09-28T14:12:50.218Z,2.00
2022-09-28T14:15:44.991Z,2.60
2022-09-28T14:18:24.609Z,2.20
2022-09-28T14:21:08.161Z,1.63
2022-09-28T14:23:48.242Z,1.87
2022-09-28T14:26:43.001Z,1.90
2022-09-28T14:29:28.568Z,1.97
2022-09-28T14:31:58.207Z,2.57
2022-09-28T14:34:38.444Z,2.73
2022-09-28T14:37:39.354Z,3.20
2022-09-28T14:40:35.067Z,2.20
2022-09-28T14:43:25.933Z,2.30
2022-09-28T14:46:33.091Z,2.10
2022-09-28T14:49:02.909Z,1.90
2022-09-28T14:52:02.891Z,2.00
2022-09-28T14:54:42.648Z,2.60
2022-09-28T14:57:18.687Z,3.17
2022-09-28T14:59:47.733Z,2.63
2022-09-28T15:02:21.133Z,2.47
2022-09-28T15:04:53.613Z,2.40
2022-09-28T15:07:24.617Z,2.40
2022-09-28T15:09:55.147Z,2.37
2022-09-28T15:12:27.033Z,2.50
2022-09-28T15:14:57.250Z,2.80
2022-09-28T15:17:28.200Z,2.80
2022-09-28T15:20:13.491Z,2.60
2022-09-28T15:22:47.545Z,3.23
2022-09-28T15:25:20.888Z,2.80
2022-09-28T15:27:54.066Z,2.90
2022-09-28T15:30:25.957Z,2.60
2022-09-28T15:32:56.651Z,2.30
2022-09-28T15:35:26.234Z,2.17
2022-09-28T15:37:55.864Z,2.30
2022-09-28T15:40:32.703Z,2.20
2022-09-28T15:43:02.460Z,2.40
2022-09-28T15:45:36.187Z,2.40
2022-09-28T15:48:19.801Z,2.30
2022-09-28T15:51:01.890Z,2.63
2022-09-28T15:53:31.296Z,2.47
2022-09-28T15:56:10.011Z,2.40
2022-09-28T15:58:39.300Z,2.60
2022-09-28T16:01:38.278Z,2.50
2022-09-28T16:04:37.636Z,2.57
2022-09-28T16:07:18.210Z,3.20
2022-09-28T16:09:56.499Z,2.83
2022-09-28T16:12:31.257Z,2.70
2022-09-28T16:15:03.838Z,2.80
2022-09-28T16:17:34.020Z,3.20
2022-09-28T16:20:04.458Z,3.20
2022-09-28T16:22:33.548Z,3.47
2022-09-28T16:25:02.260Z,3.33
2022-09-28T16:27:41.345Z,3.03
2022-09-28T16:30:21.682Z,2.93
2022-09-28T16:32:52.658Z,3.07
2022-09-28T16:35:25.424Z,3.23
2022-09-28T16:38:05.588Z,3.37
2022-09-28T16:40:34.328Z,3.47
2022-09-28T16:43:06.682Z,3.37
2022-09-28T16:45:36.935Z,3.60
2022-09-28T16:48:05.794Z,3.20
2022-09-28T16:50:33.597Z,4.87
2022-09-28T16:53:30.045Z,3.67
2022-09-28T16:55:59.401Z,3.43
2022-09-28T16:58:28.881Z,4.00
2022-09-28T17:00:56.726Z,3.60
2022-09-28T17:03:25.759Z,3.20
2022-09-28T17:05:55.167Z,2.80
2022-09-28T17:08:25.090Z,3.20
2022-09-28T17:11:15.924Z,2.87
2022-09-28T17:13:45.141Z,2.30
2022-09-28T17:16:15.258Z,2.43
2022-09-28T17:18:43.106Z,2.50
2022-09-28T17:21:13.865Z,3.30
2022-09-28T17:23:41.704Z,3.40
2022-09-28T17:26:17.865Z,3.83
2022-09-28T17:28:47.457Z,3.00
2022-09-28T17:31:17.076Z,5.20
2022-09-28T17:33:46.181Z,4.90
2022-09-28T17:36:16.217Z,3.80
2022-09-28T17:38:44.682Z,2.97
2022-09-28T17:41:16.826Z,3.30
2022-09-28T17:43:48.804Z,2.63
2022-09-28T17:46:27.146Z,2.20
2022-09-28T17:48:57.622Z,2.40
2022-09-28T17:51:25.434Z,2.43
2022-09-28T17:53:54.358Z,2.67
2022-09-28T17:56:22.307Z,3.30
2022-09-28T17:58:52.516Z,3.00
2022-09-28T18:01:20.658Z,2.70
2022-09-28T18:03:48.888Z,2.50
2022-09-28T18:06:22.230Z,6.83
2022-09-28T18:08:50.260Z,3.50
2022-09-28T18:11:18.329Z,3.40
2022-09-28T18:13:46.914Z,2.90
2022-09-28T18:16:16.669Z,3.03
2022-09-28T18:18:44.649Z,4.37
2022-09-28T18:21:12.469Z,5.40
2022-09-28T18:23:40.637Z,3.90
2022-09-28T18:26:12.907Z,7.93
2022-09-28T18:28:40.915Z,4.90
2022-09-28T18:31:09.614Z,5.53
2022-09-28T18:33:39.379Z,2.83
2022-09-28T18:36:08.561Z,2.40
2022-09-28T18:38:36.820Z,1.80
2022-09-28T18:41:10.054Z,1.60
2022-09-28T18:43:38.136Z,1.87
2022-09-28T18:46:10.525Z,1.40
2022-09-28T18:48:40.485Z,1.40
2022-09-28T18:51:10.444Z,1.70
2022-09-28T18:53:38.550Z,1.80
2022-09-28T18:56:08.018Z,1.57
2022-09-28T18:58:36.699Z,1.93
2022-09-28T19:01:29.050Z,1.57
2022-09-28T19:03:59.955Z,1.67
2022-09-28T19:06:27.785Z,1.50
2022-09-28T19:08:56.513Z,1.40
2022-09-28T19:11:25.020Z,1.80
2022-09-28T19:13:55.071Z,1.70
2022-09-28T19:16:25.303Z,1.73
2022-09-28T19:18:53.874Z,1.77
2022-09-28T19:21:23.290Z,1.90
2022-09-28T19:23:52.011Z,1.60
2022-09-28T19:26:22.880Z,1.50
2022-09-28T19:28:50.875Z,1.20
2022-09-28T19:31:19.192Z,1.20
2022-09-28T19:33:48.068Z,2.70
2022-09-28T19:36:17.688Z,3.20
2022-09-28T19:38:47.264Z,1.63
2022-09-28T19:41:39.538Z,2.13
2022-09-28T19:44:13.345Z,1.70
2022-09-28T19:46:41.659Z,2.40
2022-09-28T19:49:11.605Z,2.10
2022-09-28T19:51:51.550Z,1.63
2022-09-28T19:54:36.162Z,1.90
2022-09-28T19:57:07.414Z,2.60
2022-09-28T19:59:35.633Z,1.87
2022-09-28T20:02:03.610Z,1.90
2022-09-28T20:04:31.485Z,2.50
2022-09-28T20:06:59.271Z,1.67
2022-09-28T20:09:27.029Z,1.77
2022-09-28T20:11:56.984Z,1.20
2022-09-28T20:14:25.998Z,1.90
2022-09-28T20:16:54.437Z,1.77
2022-09-28T20:19:23.246Z,1.80
2022-09-28T20:21:51.558Z,1.70
2022-09-28T20:24:19.322Z,1.70
2022-09-28T20:26:49.479Z,1.77
2022-09-28T20:29:18.752Z,1.77
2022-09-28T20:31:46.640Z,1.37
2022-09-28T20:34:14.474Z,1.40
2022-09-28T20:36:44.514Z,1.70
2022-09-28T20:39:13.415Z,1.60
2022-09-28T20:41:41.241Z,1.67
2022-09-28T20:44:09.946Z,1.50
2022-09-28T20:46:39.218Z,1.60
2022-09-28T20:49:08.144Z,1.57
2022-09-28T20:51:35.909Z,1.87
2022-09-28T20:54:03.688Z,1.80
2022-09-28T20:56:37.518Z,1.90
2022-09-28T20:59:06.267Z,1.70
2022-09-28T21:01:34.173Z,1.60
2022-09-28T21:04:05.426Z,1.53
2022-09-28T21:06:34.789Z,1.63
2022-09-28T21:09:03.142Z,1.47
2022-09-28T21:11:31.260Z,1.43
2022-09-28T21:14:01.042Z,1.43
2022-09-28T21:16:30.602Z,1.80
2022-09-28T21:18:59.198Z,1.50
2022-09-28T21:21:28.736Z,1.53
2022-09-28T21:23:57.707Z,1.77
2022-09-28T21:26:27.403Z,2.30
2022-09-28T21:28:56.488Z,2.03
2022-09-28T21:31:28.842Z,1.93
2022-09-28T21:33:57.345Z,1.90
2022-09-28T21:36:25.798Z,1.80
2022-09-28T21:38:55.495Z,1.80
2022-09-28T21:41:23.627Z,2.07
2022-09-28T21:43:51.820Z,1.90
2022-09-28T21:46:19.681Z,2.87
2022-09-28T21:48:47.565Z,3.80
2022-09-28T21:51:15.823Z,3.80
2022-09-28T21:53:43.641Z,2.47
2022-09-28T21:56:13.848Z,2.37
2022-09-28T21:58:41.653Z,2.23
2022-09-28T22:01:12.083Z,1.83
2022-09-28T22:03:40.235Z,2.20
2022-09-28T22:06:08.880Z,2.27
2022-09-28T22:08:37.619Z,1.97
2022-09-28T22:11:07.781Z,2.00
2022-09-28T22:13:40.220Z,1.80
2022-09-28T22:16:08.577Z,1.73
2022-09-28T22:18:36.496Z,1.60
2022-09-28T22:21:07.456Z,1.80
2022-09-28T22:23:36.344Z,2.40
2022-09-28T22:26:06.323Z,2.03
2022-09-28T22:28:35.832Z,1.40
2022-09-28T22:31:03.884Z,1.63
2022-09-28T22:33:31.717Z,1.77
2022-09-28T22:35:59.441Z,1.70
2022-09-28T22:38:28.057Z,2.10
2022-09-28T22:40:57.619Z,1.50
2022-09-28T22:43:26.985Z,1.70
2022-09-28T22:46:04.014Z,1.80
2022-09-28T22:48:34.381Z,1.60
2022-09-28T22:51:03.084Z,2.00
2022-09-28T22:53:31.118Z,1.77
2022-09-28T22:56:01.419Z,1.70
2022-09-28T22:58:29.163Z,1.97
2022-09-28T23:00:57.823Z,1.70
2022-09-28T23:03:27.018Z,1.67
2022-09-28T23:05:55.277Z,2.10
2022-09-28T23:08:23.709Z,1.67
2022-09-28T23:10:52.355Z,1.67
2022-09-28T23:13:20.524Z,1.63
2022-09-28T23:15:56.090Z,1.67
2022-09-28T23:18:23.903Z,1.90
2022-09-28T23:20:57.396Z,2.03
2022-09-28T23:23:25.242Z,1.63
2022-09-28T23:25:53.557Z,1.90
2022-09-28T23:28:23.159Z,1.90
2022-09-28T23:30:51.899Z,1.63
2022-09-28T23:33:21.359Z,1.30
2022-09-28T23:35:49.379Z,1.97
2022-09-28T23:38:19.291Z,1.80
2022-09-28T23:40:47.863Z,1.90
2022-09-28T23:43:15.921Z,1.90
2022-09-28T23:45:43.865Z,1.83
2022-09-28T23:48:11.696Z,1.90
2022-09-28T23:50:41.740Z,1.80
2022-09-28T23:53:10.664Z,1.70
2022-09-28T23:55:39.863Z,2.00
2022-09-28T23:58:07.757Z,1.70
